Lochalsh, Canada
Current Conditions -  °F | °C
As of 6:00 AM on Friday 19 Dec 2014 (Local Time) from CYXZ Reporting Station
Clear Clear  
Wind Chill: -2°   Ceiling: Unl
Heat Index: -2°   Visibility: 15mi
Dew Point: -8°   Wind: 2mph
Humidity: 78%   Direction: 60°ENE
Pressure: 30.26"   Gusts: NA
Location:  48.35°N, 84.27°W
Report Text: CYXZ 191100Z 06002KT 15SM SKC M19/M22 A3026 RMK SLP277
Loading
Personal Weather Stations






























Interactive Weather Map New forecast layout! Learn more

10-Day Weather Forecast

Advertisements
Track Severe Weather on mobile